Murtaugh, Idaho
Current Conditions -  °F | °C
As of 8:53 AM on Friday 21 Nov 2014 (Local Time) from KTWF Reporting Station
Haze Haze  
Wind Chill: 25°   Ceiling: Unl
Heat Index: 31°   Visibility: 6mi
Dew Point: 27°   Wind: 6mph
Humidity: 85%   Direction: 150°SSE
Pressure: 30.02"   Gusts: NA
Location:  42.49°N, 114.16°W
Report Text: KTWF 211553Z 15005KT 6SM BR CLR M01/M03 A3002 RMK AO2 SLP173 T10061028
Loading
Personal Weather Stations






























Interactive Weather Map New forecast layout! Learn more

10-Day Weather Forecast

Advertisements
Track Severe Weather on mobile